sensor_id;sensor_type;location;lat;lon;timestamp;temperature;humidity
3262;DHT22;1643;47.746;9.000;2024-02-28T00:00:55;10.00;99.90
3262;DHT22;1643;47.746;9.000;2024-02-28T00:03:20;10.00;99.90
3262;DHT22;1643;47.746;9.000;2024-02-28T00:05:47;10.00;99.90
3262;DHT22;1643;47.746;9.000;2024-02-28T00:08:13;10.00;99.90
3262;DHT22;1643;47.746;9.000;2024-02-28T00:10:39;10.00;99.90
3262;DHT22;1643;47.746;9.000;2024-02-28T00:13:04;10.00;99.90
3262;DHT22;1643;47.746;9.000;2024-02-28T00:15:30;10.00;99.90
3262;DHT22;1643;47.746;9.000;2024-02-28T00:17:56;10.00;99.90
3262;DHT22;1643;47.746;9.000;2024-02-28T00:20:21;10.00;99.90
3262;DHT22;1643;47.746;9.000;2024-02-28T00:22:49;9.90;99.90
3262;DHT22;1643;47.746;9.000;2024-02-28T00:25:15;9.90;99.90
3262;DHT22;1643;47.746;9.000;2024-02-28T00:27:41;9.90;99.90
3262;DHT22;1643;47.746;9.000;2024-02-28T00:30:07;9.90;99.90
3262;DHT22;1643;47.746;9.000;2024-02-28T00:32:33;9.90;99.90
3262;DHT22;1643;47.746;9.000;2024-02-28T00:34:58;10.00;99.90
3262;DHT22;1643;47.746;9.000;2024-02-28T00:37:24;9.90;99.90
3262;DHT22;1643;47.746;9.000;2024-02-28T00:39:50;9.90;99.90
3262;DHT22;1643;47.746;9.000;2024-02-28T00:42:16;10.00;99.90
3262;DHT22;1643;47.746;9.000;2024-02-28T00:44:42;9.90;99.90
3262;DHT22;1643;47.746;9.000;2024-02-28T00:47:09;9.90;99.90
3262;DHT22;1643;47.746;9.000;2024-02-28T00:49:34;9.90;99.90
3262;DHT22;1643;47.746;9.000;2024-02-28T00:52:00;9.90;99.90
3262;DHT22;1643;47.746;9.000;2024-02-28T00:54:26;10.00;99.90
3262;DHT22;1643;47.746;9.000;2024-02-28T00:56:52;10.00;99.90
3262;DHT22;1643;47.746;9.000;2024-02-28T00:59:18;10.00;99.90
3262;DHT22;1643;47.746;9.000;2024-02-28T01:01:44;10.00;99.90
3262;DHT22;1643;47.746;9.000;2024-02-28T01:04:09;10.00;99.90
3262;DHT22;1643;47.746;9.000;2024-02-28T01:06:35;10.00;99.90
3262;DHT22;1643;47.746;9.000;2024-02-28T01:09:00;10.00;99.90
3262;DHT22;1643;47.746;9.000;2024-02-28T01:11:26;10.00;99.90
3262;DHT22;1643;47.746;9.000;2024-02-28T01:13:52;10.00;99.90
3262;DHT22;1643;47.746;9.000;2024-02-28T01:16:17;10.00;99.90
3262;DHT22;1643;47.746;9.000;2024-02-28T01:18:43;10.00;99.90
3262;DHT22;1643;47.746;9.000;2024-02-28T01:21:08;10.00;99.90
3262;DHT22;1643;47.746;9.000;2024-02-28T01:23:34;10.00;99.90
3262;DHT22;1643;47.746;9.000;2024-02-28T01:26:00;10.00;99.90
3262;DHT22;1643;47.746;9.000;2024-02-28T01:28:28;10.00;99.90
3262;DHT22;1643;47.746;9.000;2024-02-28T01:30:54;10.00;99.90
3262;DHT22;1643;47.746;9.000;2024-02-28T01:33:19;9.90;99.90
3262;DHT22;1643;47.746;9.000;2024-02-28T01:35:45;9.90;99.90
3262;DHT22;1643;47.746;9.000;2024-02-28T01:38:11;9.90;99.90
3262;DHT22;1643;47.746;9.000;2024-02-28T01:40:36;9.90;99.90
3262;DHT22;1643;47.746;9.000;2024-02-28T01:43:12;9.90;99.90
3262;DHT22;1643;47.746;9.000;2024-02-28T01:45:37;9.80;99.90
3262;DHT22;1643;47.746;9.000;2024-02-28T01:48:04;9.80;99.90
3262;DHT22;1643;47.746;9.000;2024-02-28T01:50:32;9.80;99.90
3262;DHT22;1643;47.746;9.000;2024-02-28T01:52:58;9.80;99.90
3262;DHT22;1643;47.746;9.000;2024-02-28T01:55:24;9.90;99.90
3262;DHT22;1643;47.746;9.000;2024-02-28T01:57:50;9.90;99.90
3262;DHT22;1643;47.746;9.000;2024-02-28T02:00:17;9.90;99.90
3262;DHT22;1643;47.746;9.000;2024-02-28T02:02:44;9.90;99.90
3262;DHT22;1643;47.746;9.000;2024-02-28T02:05:10;9.90;99.90
3262;DHT22;1643;47.746;9.000;2024-02-28T02:07:35;9.90;99.90
3262;DHT22;1643;47.746;9.000;2024-02-28T02:10:01;9.90;99.90
3262;DHT22;1643;47.746;9.000;2024-02-28T02:12:27;9.90;99.90
3262;DHT22;1643;47.746;9.000;2024-02-28T02:14:53;9.80;99.90
3262;DHT22;1643;47.746;9.000;2024-02-28T02:17:18;9.80;99.90
3262;DHT22;1643;47.746;9.000;2024-02-28T02:19:44;9.70;99.90
3262;DHT22;1643;47.746;9.000;2024-02-28T02:22:13;9.80;99.90
3262;DHT22;1643;47.746;9.000;2024-02-28T02:24:39;9.80;99.90
3262;DHT22;1643;47.746;9.000;2024-02-28T02:27:05;9.80;99.90
3262;DHT22;1643;47.746;9.000;2024-02-28T02:29:31;9.80;99.90
3262;DHT22;1643;47.746;9.000;2024-02-28T02:31:56;9.80;99.90
3262;DHT22;1643;47.746;9.000;2024-02-28T02:34:22;9.80;99.90
3262;DHT22;1643;47.746;9.000;2024-02-28T02:36:48;9.80;99.90
3262;DHT22;1643;47.746;9.000;2024-02-28T02:39:13;9.80;99.90
3262;DHT22;1643;47.746;9.000;2024-02-28T02:41:39;9.80;99.90
3262;DHT22;1643;47.746;9.000;2024-02-28T02:44:07;9.70;99.90
3262;DHT22;1643;47.746;9.000;2024-02-28T02:46:32;9.80;99.90
3262;DHT22;1643;47.746;9.000;2024-02-28T02:48:58;9.80;99.90
3262;DHT22;1643;47.746;9.000;2024-02-28T02:51:24;9.80;99.90
3262;DHT22;1643;47.746;9.000;2024-02-28T02:53:50;9.70;99.90
3262;DHT22;1643;47.746;9.000;2024-02-28T02:56:16;9.70;99.90
3262;DHT22;1643;47.746;9.000;2024-02-28T02:58:42;9.70;99.90
3262;DHT22;1643;47.746;9.000;2024-02-28T03:01:07;9.60;99.90
3262;DHT22;1643;47.746;9.000;2024-02-28T03:03:34;9.60;99.90
3262;DHT22;1643;47.746;9.000;2024-02-28T03:06:00;9.60;99.90
3262;DHT22;1643;47.746;9.000;2024-02-28T03:08:25;9.70;99.90
3262;DHT22;1643;47.746;9.000;2024-02-28T03:10:51;9.60;99.90
3262;DHT22;1643;47.746;9.000;2024-02-28T03:13:17;9.50;99.90
3262;DHT22;1643;47.746;9.000;2024-02-28T03:15:44;9.60;99.90
3262;DHT22;1643;47.746;9.000;2024-02-28T03:18:09;9.50;99.90
3262;DHT22;1643;47.746;9.000;2024-02-28T03:20:35;9.60;99.90
3262;DHT22;1643;47.746;9.000;2024-02-28T03:23:04;9.60;99.90
3262;DHT22;1643;47.746;9.000;2024-02-28T03:25:31;9.60;99.90
3262;DHT22;1643;47.746;9.000;2024-02-28T03:27:58;9.60;99.90
3262;DHT22;1643;47.746;9.000;2024-02-28T03:30:25;9.60;99.90
3262;DHT22;1643;47.746;9.000;2024-02-28T03:32:50;9.50;99.90
3262;DHT22;1643;47.746;9.000;2024-02-28T03:35:16;9.60;99.90
3262;DHT22;1643;47.746;9.000;2024-02-28T03:37:42;9.60;99.90
3262;DHT22;1643;47.746;9.000;2024-02-28T03:40:08;9.60;99.90
3262;DHT22;1643;47.746;9.000;2024-02-28T03:42:33;9.60;99.90
3262;DHT22;1643;47.746;9.000;2024-02-28T03:44:59;9.60;99.90
3262;DHT22;1643;47.746;9.000;2024-02-28T03:47:25;9.60;99.90
3262;DHT22;1643;47.746;9.000;2024-02-28T03:49:51;9.60;99.90
3262;DHT22;1643;47.746;9.000;2024-02-28T03:52:16;9.60;99.90
3262;DHT22;1643;47.746;9.000;2024-02-28T03:54:43;9.60;99.90
3262;DHT22;1643;47.746;9.000;2024-02-28T03:57:09;9.50;99.90
3262;DHT22;1643;47.746;9.000;2024-02-28T03:59:35;9.40;99.90
3262;DHT22;1643;47.746;9.000;2024-02-28T04:02:00;9.40;99.90
3262;DHT22;1643;47.746;9.000;2024-02-28T04:04:26;9.40;99.90
3262;DHT22;1643;47.746;9.000;2024-02-28T04:06:51;9.40;99.90
3262;DHT22;1643;47.746;9.000;2024-02-28T04:09:17;9.40;99.90
3262;DHT22;1643;47.746;9.000;2024-02-28T04:11:43;9.40;99.90
3262;DHT22;1643;47.746;9.000;2024-02-28T04:14:09;9.40;99.90
3262;DHT22;1643;47.746;9.000;2024-02-28T04:16:34;9.50;99.90
3262;DHT22;1643;47.746;9.000;2024-02-28T04:19:00;9.40;99.90
3262;DHT22;1643;47.746;9.000;2024-02-28T04:21:25;9.40;99.90
3262;DHT22;1643;47.746;9.000;2024-02-28T04:23:51;9.40;99.90
3262;DHT22;1643;47.746;9.000;2024-02-28T04:26:17;9.40;99.90
3262;DHT22;1643;47.746;9.000;2024-02-28T04:28:42;9.30;99.90
3262;DHT22;1643;47.746;9.000;2024-02-28T04:31:08;9.30;99.90
3262;DHT22;1643;47.746;9.000;2024-02-28T04:33:35;9.30;99.90
3262;DHT22;1643;47.746;9.000;2024-02-28T04:36:01;9.30;99.90
3262;DHT22;1643;47.746;9.000;2024-02-28T04:38:27;9.30;99.90
3262;DHT22;1643;47.746;9.000;2024-02-28T04:40:53;9.20;99.90
3262;DHT22;1643;47.746;9.000;2024-02-28T04:43:18;9.20;99.90
3262;DHT22;1643;47.746;9.000;2024-02-28T04:45:44;9.20;99.90
3262;DHT22;1643;47.746;9.000;2024-02-28T04:48:09;9.20;99.90
3262;DHT22;1643;47.746;9.000;2024-02-28T04:50:35;9.20;99.90
3262;DHT22;1643;47.746;9.000;2024-02-28T04:53:01;9.20;99.90
3262;DHT22;1643;47.746;9.000;2024-02-28T04:55:27;9.30;99.90
3262;DHT22;1643;47.746;9.000;2024-02-28T04:57:52;9.30;99.90
3262;DHT22;1643;47.746;9.000;2024-02-28T05:00:18;9.20;99.90
3262;DHT22;1643;47.746;9.000;2024-02-28T05:02:43;9.20;99.90
3262;DHT22;1643;47.746;9.000;2024-02-28T05:05:09;9.20;99.90
3262;DHT22;1643;47.746;9.000;2024-02-28T05:07:35;9.20;99.90
3262;DHT22;1643;47.746;9.000;2024-02-28T05:10:00;9.10;99.90
3262;DHT22;1643;47.746;9.000;2024-02-28T05:12:26;9.10;99.90
3262;DHT22;1643;47.746;9.000;2024-02-28T05:14:52;9.10;99.90
3262;DHT22;1643;47.746;9.000;2024-02-28T05:17:17;9.20;99.90
3262;DHT22;1643;47.746;9.000;2024-02-28T05:19:43;9.10;99.90
3262;DHT22;1643;47.746;9.000;2024-02-28T05:22:09;9.10;99.90
3262;DHT22;1643;47.746;9.000;2024-02-28T05:24:36;9.10;99.90
3262;DHT22;1643;47.746;9.000;2024-02-28T05:27:02;9.10;99.90
3262;DHT22;1643;47.746;9.000;2024-02-28T05:29:28;9.10;99.90
3262;DHT22;1643;47.746;9.000;2024-02-28T05:31:53;9.10;99.90
3262;DHT22;1643;47.746;9.000;2024-02-28T05:34:20;9.00;99.90
3262;DHT22;1643;47.746;9.000;2024-02-28T05:36:45;9.00;99.90
3262;DHT22;1643;47.746;9.000;2024-02-28T05:39:11;8.90;99.90
3262;DHT22;1643;47.746;9.000;2024-02-28T05:41:37;9.00;99.90
3262;DHT22;1643;47.746;9.000;2024-02-28T05:44:02;8.90;99.90
3262;DHT22;1643;47.746;9.000;2024-02-28T05:46:28;8.80;99.90
3262;DHT22;1643;47.746;9.000;2024-02-28T05:48:54;8.90;99.90
3262;DHT22;1643;47.746;9.000;2024-02-28T05:51:19;8.80;99.90
3262;DHT22;1643;47.746;9.000;2024-02-28T05:53:45;8.70;99.90
3262;DHT22;1643;47.746;9.000;2024-02-28T05:56:11;8.70;99.90
3262;DHT22;1643;47.746;9.000;2024-02-28T05:58:41;8.70;99.90
3262;DHT22;1643;47.746;9.000;2024-02-28T06:01:07;8.60;99.90
3262;DHT22;1643;47.746;9.000;2024-02-28T06:03:38;8.60;99.90
3262;DHT22;1643;47.746;9.000;2024-02-28T06:06:04;8.60;99.90
3262;DHT22;1643;47.746;9.000;2024-02-28T06:08:34;8.50;99.90
3262;DHT22;1643;47.746;9.000;2024-02-28T06:11:00;8.50;99.90
3262;DHT22;1643;47.746;9.000;2024-02-28T06:13:27;8.50;99.90
3262;DHT22;1643;47.746;9.000;2024-02-28T06:15:54;8.60;99.90
3262;DHT22;1643;47.746;9.000;2024-02-28T06:18:19;8.60;99.90
3262;DHT22;1643;47.746;9.000;2024-02-28T06:20:45;8.50;99.90
3262;DHT22;1643;47.746;9.000;2024-02-28T06:23:11;8.50;99.90
3262;DHT22;1643;47.746;9.000;2024-02-28T06:25:36;8.60;99.90
3262;DHT22;1643;47.746;9.000;2024-02-28T06:28:02;8.60;99.90
3262;DHT22;1643;47.746;9.000;2024-02-28T06:30:31;8.60;99.90
3262;DHT22;1643;47.746;9.000;2024-02-28T06:32:59;8.60;99.90
3262;DHT22;1643;47.746;9.000;2024-02-28T06:35:25;8.60;99.90
3262;DHT22;1643;47.746;9.000;2024-02-28T06:37:51;8.50;99.90
3262;DHT22;1643;47.746;9.000;2024-02-28T06:40:17;8.50;99.90
3262;DHT22;1643;47.746;9.000;2024-02-28T06:42:42;8.50;99.90
3262;DHT22;1643;47.746;9.000;2024-02-28T06:45:08;8.50;99.90
3262;DHT22;1643;47.746;9.000;2024-02-28T06:47:34;8.50;99.90
3262;DHT22;1643;47.746;9.000;2024-02-28T06:50:02;8.40;99.90
3262;DHT22;1643;47.746;9.000;2024-02-28T06:52:28;8.40;99.90
3262;DHT22;1643;47.746;9.000;2024-02-28T06:54:53;8.50;99.90
3262;DHT22;1643;47.746;9.000;2024-02-28T06:57:19;8.50;99.90
3262;DHT22;1643;47.746;9.000;2024-02-28T06:59:45;8.50;99.90
3262;DHT22;1643;47.746;9.000;2024-02-28T07:02:10;8.50;99.90
3262;DHT22;1643;47.746;9.000;2024-02-28T07:04:38;8.50;99.90
3262;DHT22;1643;47.746;9.000;2024-02-28T07:07:04;8.50;99.90
3262;DHT22;1643;47.746;9.000;2024-02-28T07:09:31;8.40;99.90
3262;DHT22;1643;47.746;9.000;2024-02-28T07:11:58;8.40;99.90
3262;DHT22;1643;47.746;9.000;2024-02-28T07:14:24;8.50;99.90
3262;DHT22;1643;47.746;9.000;2024-02-28T07:16:50;8.60;99.90
3262;DHT22;1643;47.746;9.000;2024-02-28T07:19:17;8.60;99.90
3262;DHT22;1643;47.746;9.000;2024-02-28T07:21:44;8.60;99.90
3262;DHT22;1643;47.746;9.000;2024-02-28T07:24:09;8.60;99.90
3262;DHT22;1643;47.746;9.000;2024-02-28T07:26:35;8.60;99.90
3262;DHT22;1643;47.746;9.000;2024-02-28T07:29:01;8.60;99.90
3262;DHT22;1643;47.746;9.000;2024-02-28T07:31:26;8.60;99.90
3262;DHT22;1643;47.746;9.000;2024-02-28T07:33:52;8.60;99.90
3262;DHT22;1643;47.746;9.000;2024-02-28T07:36:18;8.70;99.90
3262;DHT22;1643;47.746;9.000;2024-02-28T07:38:44;8.70;99.90
3262;DHT22;1643;47.746;9.000;2024-02-28T07:41:10;8.70;99.90
3262;DHT22;1643;47.746;9.000;2024-02-28T07:43:35;8.80;99.90
3262;DHT22;1643;47.746;9.000;2024-02-28T07:46:07;8.80;99.90
3262;DHT22;1643;47.746;9.000;2024-02-28T07:48:34;8.90;99.90
3262;DHT22;1643;47.746;9.000;2024-02-28T07:50:59;8.90;99.90
3262;DHT22;1643;47.746;9.000;2024-02-28T07:53:26;9.00;99.90
3262;DHT22;1643;47.746;9.000;2024-02-28T07:55:52;9.00;99.90
3262;DHT22;1643;47.746;9.000;2024-02-28T07:58:17;8.90;99.90
3262;DHT22;1643;47.746;9.000;2024-02-28T08:00:44;9.00;99.90
3262;DHT22;1643;47.746;9.000;2024-02-28T08:03:09;8.90;99.90
3262;DHT22;1643;47.746;9.000;2024-02-28T08:05:35;9.00;99.90
3262;DHT22;1643;47.746;9.000;2024-02-28T08:08:06;9.00;99.90
3262;DHT22;1643;47.746;9.000;2024-02-28T08:10:31;9.00;99.90
3262;DHT22;1643;47.746;9.000;2024-02-28T08:12:57;8.90;99.90
3262;DHT22;1643;47.746;9.000;2024-02-28T08:15:23;8.90;99.90
3262;DHT22;1643;47.746;9.000;2024-02-28T08:17:48;9.00;99.90
3262;DHT22;1643;47.746;9.000;2024-02-28T08:20:14;9.00;99.90
3262;DHT22;1643;47.746;9.000;2024-02-28T08:22:40;9.00;99.90
3262;DHT22;1643;47.746;9.000;2024-02-28T08:25:06;9.10;99.90
3262;DHT22;1643;47.746;9.000;2024-02-28T08:27:32;9.00;99.90
3262;DHT22;1643;47.746;9.000;2024-02-28T08:30:00;9.10;99.90
3262;DHT22;1643;47.746;9.000;2024-02-28T08:32:26;9.10;99.90
3262;DHT22;1643;47.746;9.000;2024-02-28T08:34:51;9.20;99.90
3262;DHT22;1643;47.746;9.000;2024-02-28T08:37:19;9.30;99.90
3262;DHT22;1643;47.746;9.000;2024-02-28T08:39:45;9.30;99.90
3262;DHT22;1643;47.746;9.000;2024-02-28T08:42:11;9.30;99.90
3262;DHT22;1643;47.746;9.000;2024-02-28T08:44:37;9.40;99.90
3262;DHT22;1643;47.746;9.000;2024-02-28T08:47:03;9.40;99.90
3262;DHT22;1643;47.746;9.000;2024-02-28T08:49:29;9.50;99.90
3262;DHT22;1643;47.746;9.000;2024-02-28T08:51:56;9.50;99.90
3262;DHT22;1643;47.746;9.000;2024-02-28T08:54:22;9.60;99.90
3262;DHT22;1643;47.746;9.000;2024-02-28T08:56:48;9.60;99.90
3262;DHT22;1643;47.746;9.000;2024-02-28T08:59:13;9.60;99.90
3262;DHT22;1643;47.746;9.000;2024-02-28T09:01:39;9.60;99.90
3262;DHT22;1643;47.746;9.000;2024-02-28T09:04:07;9.60;99.90
3262;DHT22;1643;47.746;9.000;2024-02-28T09:06:32;9.60;99.90
3262;DHT22;1643;47.746;9.000;2024-02-28T09:08:58;9.60;99.90
3262;DHT22;1643;47.746;9.000;2024-02-28T09:11:24;9.70;99.90
3262;DHT22;1643;47.746;9.000;2024-02-28T09:13:50;9.60;99.90
3262;DHT22;1643;47.746;9.000;2024-02-28T09:16:16;9.70;99.90
3262;DHT22;1643;47.746;9.000;2024-02-28T09:18:42;9.70;99.90
3262;DHT22;1643;47.746;9.000;2024-02-28T09:21:08;9.70;99.90
3262;DHT22;1643;47.746;9.000;2024-02-28T09:23:34;9.70;99.90
3262;DHT22;1643;47.746;9.000;2024-02-28T09:26:03;9.60;99.90
3262;DHT22;1643;47.746;9.000;2024-02-28T09:28:29;9.60;99.90
3262;DHT22;1643;47.746;9.000;2024-02-28T09:30:55;9.70;99.90
3262;DHT22;1643;47.746;9.000;2024-02-28T09:33:20;9.70;99.90
3262;DHT22;1643;47.746;9.000;2024-02-28T09:35:46;9.70;99.90
3262;DHT22;1643;47.746;9.000;2024-02-28T09:38:12;9.80;99.90
3262;DHT22;1643;47.746;9.000;2024-02-28T09:40:38;9.90;99.90
3262;DHT22;1643;47.746;9.000;2024-02-28T09:43:04;9.90;99.90
3262;DHT22;1643;47.746;9.000;2024-02-28T09:45:30;10.00;99.90
3262;DHT22;1643;47.746;9.000;2024-02-28T09:48:01;10.10;99.90
3262;DHT22;1643;47.746;9.000;2024-02-28T09:50:29;10.10;99.90
3262;DHT22;1643;47.746;9.000;2024-02-28T09:52:55;10.20;99.90
3262;DHT22;1643;47.746;9.000;2024-02-28T09:55:21;10.20;99.90
3262;DHT22;1643;47.746;9.000;2024-02-28T09:57:48;10.20;99.90
3262;DHT22;1643;47.746;9.000;2024-02-28T10:00:17;10.20;99.90
3262;DHT22;1643;47.746;9.000;2024-02-28T10:02:46;10.30;99.90
3262;DHT22;1643;47.746;9.000;2024-02-28T10:05:14;10.30;99.90
3262;DHT22;1643;47.746;9.000;2024-02-28T10:07:40;10.30;99.90
3262;DHT22;1643;47.746;9.000;2024-02-28T10:10:06;10.30;99.90
3262;DHT22;1643;47.746;9.000;2024-02-28T10:12:33;10.30;99.90
3262;DHT22;1643;47.746;9.000;2024-02-28T10:15:00;10.30;99.90
3262;DHT22;1643;47.746;9.000;2024-02-28T10:17:26;10.30;99.90
3262;DHT22;1643;47.746;9.000;2024-02-28T10:19:52;10.30;99.90
3262;DHT22;1643;47.746;9.000;2024-02-28T10:22:18;10.40;99.90
3262;DHT22;1643;47.746;9.000;2024-02-28T10:24:44;10.40;99.90
3262;DHT22;1643;47.746;9.000;2024-02-28T10:27:10;10.40;99.90
3262;DHT22;1643;47.746;9.000;2024-02-28T10:29:36;10.40;99.90
3262;DHT22;1643;47.746;9.000;2024-02-28T10:32:02;10.40;99.90
3262;DHT22;1643;47.746;9.000;2024-02-28T10:34:31;10.40;99.90
3262;DHT22;1643;47.746;9.000;2024-02-28T10:36:58;10.40;99.90
3262;DHT22;1643;47.746;9.000;2024-02-28T10:39:24;10.40;99.90
3262;DHT22;1643;47.746;9.000;2024-02-28T10:41:52;10.40;99.90
3262;DHT22;1643;47.746;9.000;2024-02-28T10:44:20;10.40;99.90
3262;DHT22;1643;47.746;9.000;2024-02-28T10:46:49;10.50;99.90
3262;DHT22;1643;47.746;9.000;2024-02-28T10:49:15;10.50;99.90
3262;DHT22;1643;47.746;9.000;2024-02-28T10:51:46;10.40;99.90
3262;DHT22;1643;47.746;9.000;2024-02-28T10:54:14;10.50;99.90
3262;DHT22;1643;47.746;9.000;2024-02-28T10:56:41;10.60;99.90
3262;DHT22;1643;47.746;9.000;2024-02-28T10:59:10;10.60;99.90
3262;DHT22;1643;47.746;9.000;2024-02-28T11:01:37;10.70;99.90
3262;DHT22;1643;47.746;9.000;2024-02-28T11:04:04;10.90;99.90
3262;DHT22;1643;47.746;9.000;2024-02-28T11:06:30;11.00;99.90
3262;DHT22;1643;47.746;9.000;2024-02-28T11:09:00;11.20;99.90
3262;DHT22;1643;47.746;9.000;2024-02-28T11:11:30;11.20;99.90
3262;DHT22;1643;47.746;9.000;2024-02-28T11:13:57;11.50;99.90
3262;DHT22;1643;47.746;9.000;2024-02-28T11:18:53;11.70;99.90
3262;DHT22;1643;47.746;9.000;2024-02-28T11:21:19;11.70;99.90
3262;DHT22;1643;47.746;9.000;2024-02-28T11:23:47;11.80;99.90
3262;DHT22;1643;47.746;9.000;2024-02-28T11:26:13;11.80;99.90
3262;DHT22;1643;47.746;9.000;2024-02-28T11:28:39;11.90;99.90
3262;DHT22;1643;47.746;9.000;2024-02-28T11:31:05;12.00;99.90
3262;DHT22;1643;47.746;9.000;2024-02-28T11:33:31;11.90;99.90
3262;DHT22;1643;47.746;9.000;2024-02-28T11:35:58;12.00;99.90
3262;DHT22;1643;47.746;9.000;2024-02-28T11:38:27;11.90;99.90
3262;DHT22;1643;47.746;9.000;2024-02-28T11:40:54;11.90;99.90
3262;DHT22;1643;47.746;9.000;2024-02-28T11:43:21;11.80;99.90
3262;DHT22;1643;47.746;9.000;2024-02-28T11:45:46;11.80;99.90
3262;DHT22;1643;47.746;9.000;2024-02-28T11:48:13;11.80;99.90
3262;DHT22;1643;47.746;9.000;2024-02-28T11:50:39;11.80;99.90
3262;DHT22;1643;47.746;9.000;2024-02-28T11:53:06;11.80;99.90
3262;DHT22;1643;47.746;9.000;2024-02-28T11:55:32;11.80;99.90
3262;DHT22;1643;47.746;9.000;2024-02-28T11:57:58;11.70;99.90
3262;DHT22;1643;47.746;9.000;2024-02-28T12:00:23;11.60;99.90
3262;DHT22;1643;47.746;9.000;2024-02-28T12:02:49;11.50;99.90
3262;DHT22;1643;47.746;9.000;2024-02-28T12:05:15;11.50;99.90
3262;DHT22;1643;47.746;9.000;2024-02-28T12:07:41;11.50;99.90
3262;DHT22;1643;47.746;9.000;2024-02-28T12:10:08;11.50;99.90
3262;DHT22;1643;47.746;9.000;2024-02-28T12:12:34;11.50;99.90
3262;DHT22;1643;47.746;9.000;2024-02-28T12:15:00;11.50;99.90
3262;DHT22;1643;47.746;9.000;2024-02-28T12:17:29;11.60;99.90
3262;DHT22;1643;47.746;9.000;2024-02-28T12:19:54;11.60;99.90
3262;DHT22;1643;47.746;9.000;2024-02-28T12:22:21;11.50;99.90
3262;DHT22;1643;47.746;9.000;2024-02-28T12:24:47;11.60;99.90
3262;DHT22;1643;47.746;9.000;2024-02-28T12:27:13;11.50;99.90
3262;DHT22;1643;47.746;9.000;2024-02-28T12:29:38;11.60;99.90
3262;DHT22;1643;47.746;9.000;2024-02-28T12:32:04;11.60;99.90
3262;DHT22;1643;47.746;9.000;2024-02-28T12:34:30;11.60;99.90
3262;DHT22;1643;47.746;9.000;2024-02-28T12:36:55;11.80;99.90
3262;DHT22;1643;47.746;9.000;2024-02-28T12:39:21;11.80;99.90
3262;DHT22;1643;47.746;9.000;2024-02-28T12:41:47;11.80;99.90
3262;DHT22;1643;47.746;9.000;2024-02-28T12:44:13;11.90;99.90
3262;DHT22;1643;47.746;9.000;2024-02-28T12:46:39;11.90;99.90
3262;DHT22;1643;47.746;9.000;2024-02-28T12:49:05;12.10;99.90
3262;DHT22;1643;47.746;9.000;2024-02-28T12:51:41;12.20;99.90
3262;DHT22;1643;47.746;9.000;2024-02-28T12:54:08;12.40;99.90
3262;DHT22;1643;47.746;9.000;2024-02-28T12:56:38;12.20;99.90
3262;DHT22;1643;47.746;9.000;2024-02-28T12:59:05;12.20;99.90
3262;DHT22;1643;47.746;9.000;2024-02-28T13:01:32;12.20;99.90
3262;DHT22;1643;47.746;9.000;2024-02-28T13:03:58;12.20;99.90
3262;DHT22;1643;47.746;9.000;2024-02-28T13:06:24;12.30;99.90
3262;DHT22;1643;47.746;9.000;2024-02-28T13:08:49;12.20;99.90
3262;DHT22;1643;47.746;9.000;2024-02-28T13:11:19;12.30;99.90
3262;DHT22;1643;47.746;9.000;2024-02-28T13:13:49;12.50;99.90
3262;DHT22;1643;47.746;9.000;2024-02-28T13:16:19;12.70;99.90
3262;DHT22;1643;47.746;9.000;2024-02-28T13:18:45;12.80;99.90
3262;DHT22;1643;47.746;9.000;2024-02-28T13:21:11;12.90;99.90
3262;DHT22;1643;47.746;9.000;2024-02-28T13:23:37;12.70;99.90
3262;DHT22;1643;47.746;9.000;2024-02-28T13:26:04;12.80;99.90
3262;DHT22;1643;47.746;9.000;2024-02-28T13:28:30;13.00;99.90
3262;DHT22;1643;47.746;9.000;2024-02-28T13:31:00;13.00;99.90
3262;DHT22;1643;47.746;9.000;2024-02-28T13:33:26;13.00;99.90
3262;DHT22;1643;47.746;9.000;2024-02-28T13:35:53;12.90;99.90
3262;DHT22;1643;47.746;9.000;2024-02-28T13:38:20;13.10;99.90
3262;DHT22;1643;47.746;9.000;2024-02-28T13:40:49;13.20;99.90
3262;DHT22;1643;47.746;9.000;2024-02-28T13:43:16;13.40;99.90
3262;DHT22;1643;47.746;9.000;2024-02-28T13:45:49;13.30;99.90
3262;DHT22;1643;47.746;9.000;2024-02-28T13:48:24;13.50;99.90
3262;DHT22;1643;47.746;9.000;2024-02-28T13:50:51;13.50;99.90
3262;DHT22;1643;47.746;9.000;2024-02-28T13:53:16;13.30;99.90
3262;DHT22;1643;47.746;9.000;2024-02-28T13:55:43;13.20;99.90
3262;DHT22;1643;47.746;9.000;2024-02-28T13:58:11;13.10;99.90
3262;DHT22;1643;47.746;9.000;2024-02-28T14:00:37;12.90;99.90
3262;DHT22;1643;47.746;9.000;2024-02-28T14:03:04;12.70;99.90
3262;DHT22;1643;47.746;9.000;2024-02-28T14:05:30;12.50;99.90
3262;DHT22;1643;47.746;9.000;2024-02-28T14:07:56;12.20;99.90
3262;DHT22;1643;47.746;9.000;2024-02-28T14:10:26;12.00;99.90
3262;DHT22;1643;47.746;9.000;2024-02-28T14:12:52;12.00;99.90
3262;DHT22;1643;47.746;9.000;2024-02-28T14:15:20;11.80;99.90
3262;DHT22;1643;47.746;9.000;2024-02-28T14:17:46;11.80;99.90
3262;DHT22;1643;47.746;9.000;2024-02-28T14:20:12;11.70;99.90
3262;DHT22;1643;47.746;9.000;2024-02-28T14:22:38;11.70;99.90
3262;DHT22;1643;47.746;9.000;2024-02-28T14:27:36;11.60;99.90
3262;DHT22;1643;47.746;9.000;2024-02-28T14:30:03;11.60;99.90
3262;DHT22;1643;47.746;9.000;2024-02-28T14:32:33;11.50;99.90
3262;DHT22;1643;47.746;9.000;2024-02-28T14:34:59;11.50;99.90
3262;DHT22;1643;47.746;9.000;2024-02-28T14:37:24;11.40;99.90
3262;DHT22;1643;47.746;9.000;2024-02-28T14:39:50;11.40;99.90
3262;DHT22;1643;47.746;9.000;2024-02-28T14:42:15;11.40;99.90
3262;DHT22;1643;47.746;9.000;2024-02-28T14:44:41;11.50;99.90
3262;DHT22;1643;47.746;9.000;2024-02-28T14:47:07;11.50;99.90
3262;DHT22;1643;47.746;9.000;2024-02-28T14:49:32;11.50;99.90
3262;DHT22;1643;47.746;9.000;2024-02-28T14:51:58;11.50;99.90
3262;DHT22;1643;47.746;9.000;2024-02-28T14:54:25;11.60;99.90
3262;DHT22;1643;47.746;9.000;2024-02-28T14:56:52;11.70;99.90
3262;DHT22;1643;47.746;9.000;2024-02-28T14:59:18;11.70;99.90
3262;DHT22;1643;47.746;9.000;2024-02-28T15:01:43;11.70;99.90
3262;DHT22;1643;47.746;9.000;2024-02-28T15:04:09;11.80;99.90
3262;DHT22;1643;47.746;9.000;2024-02-28T15:06:35;12.20;99.90
3262;DHT22;1643;47.746;9.000;2024-02-28T15:09:01;12.30;99.90
3262;DHT22;1643;47.746;9.000;2024-02-28T15:11:28;12.40;99.90
3262;DHT22;1643;47.746;9.000;2024-02-28T15:13:54;12.10;99.90
3262;DHT22;1643;47.746;9.000;2024-02-28T15:16:20;12.10;99.90
3262;DHT22;1643;47.746;9.000;2024-02-28T15:18:45;12.10;99.90
3262;DHT22;1643;47.746;9.000;2024-02-28T15:21:11;11.90;99.90
3262;DHT22;1643;47.746;9.000;2024-02-28T15:23:36;11.80;99.90
3262;DHT22;1643;47.746;9.000;2024-02-28T15:26:02;11.80;99.90
3262;DHT22;1643;47.746;9.000;2024-02-28T15:28:28;11.80;99.90
3262;DHT22;1643;47.746;9.000;2024-02-28T15:30:55;11.70;99.90
3262;DHT22;1643;47.746;9.000;2024-02-28T15:33:21;11.70;99.90
3262;DHT22;1643;47.746;9.000;2024-02-28T15:35:47;11.80;99.90
3262;DHT22;1643;47.746;9.000;2024-02-28T15:38:14;11.80;99.90
3262;DHT22;1643;47.746;9.000;2024-02-28T15:40:40;12.10;99.90
3262;DHT22;1643;47.746;9.000;2024-02-28T15:43:06;12.20;99.90
3262;DHT22;1643;47.746;9.000;2024-02-28T15:45:31;12.40;99.90
3262;DHT22;1643;47.746;9.000;2024-02-28T15:48:04;12.50;99.90
3262;DHT22;1643;47.746;9.000;2024-02-28T15:50:30;12.50;99.90
3262;DHT22;1643;47.746;9.000;2024-02-28T15:52:56;12.40;99.90
3262;DHT22;1643;47.746;9.000;2024-02-28T15:55:22;12.30;99.90
3262;DHT22;1643;47.746;9.000;2024-02-28T15:57:48;12.20;99.90
3262;DHT22;1643;47.746;9.000;2024-02-28T16:00:14;12.10;99.90
3262;DHT22;1643;47.746;9.000;2024-02-28T16:02:40;12.00;99.90
3262;DHT22;1643;47.746;9.000;2024-02-28T16:05:05;11.90;99.90
3262;DHT22;1643;47.746;9.000;2024-02-28T16:07:31;11.80;99.90